KACP

Allen Parish Airport

Oakdale, Louisiana, USA
METAR KACP 180155Z AUTO 00000KT 7SM OVC006 15/14 A3011 RMK AO2 LTG DSNT S T01500138
Observed Flight Rules
Dec-18 @ 01:55 UTC (an hour ago) Instrument Flight Rules
Wind Visibility Clouds
Calm 7 miles
  • Overcast at 600' AGL
Temperatures Readings
Current 15°C / 59°F
Dewpoint 14°C / 57°F
Humidity 94%
Altimeter 30.11" Hg
Pressure 1020 hPa
Elevation 33
METAR KACP 180155Z AUTO 00000KT 7SM OVC006 15/14 A3011 RMK AO2 LTG DSNT S T01500138
Observed Flight Rules
Dec-18 @ 01:55 UTC
(an hour ago)
IFR
Wind Visibility
Calm 7 miles
Clouds
  • Overcast at 600' AGL
Temperature Dewpoint
15°C / 59°F 14°C / 57°F
Humidity Altimeter Pressure
94% 30.11" Hg 1020 hPa